Time;durP1;ratioP1;P1;durP2;ratioP2;P2;SDS_P1;SDS_P2;PMS_P1;PMS_P2;Temp;Humidity;BMP_temperature;BMP_pressure;BME280_temperature;BME280_humidity;BME280_pressure;Samples;Min_cycle;Max_cycle;Signal;HPM_P1;HPM_P2
2022/11/25 00:02:06;;;;;;;10.93;2.57;;;7.70;99.90;;;;;;5089607;28;20183;-79
2022/11/25 00:04:35;;;;;;;7.30;1.70;;;7.70;99.90;;;;;;5073037;28;20194;-80
2022/11/25 00:07:02;;;;;;;7.60;2.23;;;7.70;99.90;;;;;;5074910;28;20195;-79
2022/11/25 00:09:27;;;;;;;8.03;2.37;;;7.70;99.90;;;;;;5074666;28;20652;-79
2022/11/25 00:11:53;;;;;;;7.60;2.00;;;7.70;99.90;;;;;;5072603;28;20182;-80
2022/11/25 00:14:18;;;;;;;14.00;2.93;;;7.70;99.90;;;;;;5074998;28;20197;-79
2022/11/25 00:16:44;;;;;;;6.93;1.80;;;7.80;99.90;;;;;;5075801;28;20178;-80
2022/11/25 00:19:10;;;;;;;12.17;2.27;;;7.80;99.90;;;;;;5076337;28;20643;-80
2022/11/25 00:21:36;;;;;;;13.57;1.90;;;7.80;99.90;;;;;;5076039;28;20190;-80
2022/11/25 00:24:03;;;;;;;8.57;2.23;;;7.80;99.90;;;;;;5080274;28;20199;-79
2022/11/25 00:26:33;;;;;;;7.87;1.87;;;7.80;99.90;;;;;;5080170;28;20247;-79
2022/11/25 00:29:01;;;;;;;10.53;2.17;;;7.80;99.90;;;;;;5082380;28;20235;-79
2022/11/25 00:31:30;;;;;;;9.97;2.37;;;7.80;99.90;;;;;;5081662;28;20224;-79
2022/11/25 00:33:55;;;;;;;9.87;1.97;;;7.90;99.90;;;;;;5080336;28;20645;-78
2022/11/25 00:36:22;;;;;;;7.80;1.70;;;7.90;99.90;;;;;;5074341;28;20178;-80
2022/11/25 00:38:56;;;;;;;13.47;1.93;;;7.80;99.90;;;;;;5074591;28;20213;-79
2022/11/25 00:46:54;;;;;;;7.37;1.70;;;7.90;99.90;;;;;;5075838;28;20685;-79
2022/11/25 00:49:20;;;;;;;6.27;1.80;;;7.90;99.90;;;;;;5074895;28;20309;-79
2022/11/25 00:51:45;;;;;;;9.67;1.90;;;7.90;99.90;;;;;;5074461;28;20179;-80
2022/11/25 00:54:11;;;;;;;8.83;2.07;;;7.90;99.90;;;;;;5074494;28;20575;-79
2022/11/25 00:56:37;;;;;;;7.47;2.07;;;7.90;99.90;;;;;;5073407;28;20641;-80
2022/11/25 00:59:02;;;;;;;12.23;2.57;;;7.90;99.90;;;;;;5074229;28;20218;-79
2022/11/25 01:01:28;;;;;;;8.40;2.10;;;8.00;99.90;;;;;;5074787;28;20183;-80
2022/11/25 01:03:53;;;;;;;9.70;2.10;;;7.90;99.90;;;;;;5074185;28;20195;-79
2022/11/25 01:06:20;;;;;;;11.10;2.67;;;7.90;99.90;;;;;;5074564;28;20205;-79
2022/11/25 01:08:46;;;;;;;10.47;1.83;;;7.90;99.90;;;;;;5073831;28;20166;-79
2022/11/25 01:11:14;;;;;;;10.93;2.77;;;8.00;99.90;;;;;;5074540;28;20171;-79
2022/11/25 01:13:40;;;;;;;8.87;1.87;;;8.00;99.90;;;;;;5074847;28;20171;-79
2022/11/25 01:16:09;;;;;;;8.53;2.10;;;8.00;99.90;;;;;;5074083;28;20644;-80
2022/11/25 01:18:35;;;;;;;6.77;1.70;;;8.10;99.90;;;;;;5074136;28;20188;-79
2022/11/25 01:21:15;;;;;;;8.23;2.27;;;8.10;99.90;;;;;;5074881;28;20258;-79
2022/11/25 01:23:42;;;;;;;6.43;1.90;;;8.10;99.90;;;;;;5088493;28;20154;-78
2022/11/25 01:26:10;;;;;;;12.53;2.10;;;8.20;99.90;;;;;;5096778;28;20215;-79
2022/11/25 01:28:36;;;;;;;7.33;2.30;;;8.20;99.90;;;;;;5090454;28;20175;-79
2022/11/25 01:31:03;;;;;;;6.53;2.33;;;8.20;99.90;;;;;;5076826;28;20182;-79
2022/11/25 01:33:31;;;;;;;4.40;1.60;;;8.20;99.90;;;;;;5077020;28;20178;-79
2022/11/25 01:36:03;;;;;;;11.43;2.50;;;8.30;99.90;;;;;;5075328;28;20707;-78
2022/11/25 01:38:30;;;;;;;8.20;2.00;;;8.30;99.90;;;;;;5077368;28;20161;-80
2022/11/25 01:40:56;;;;;;;8.47;1.80;;;8.30;99.90;;;;;;5077160;28;20171;-79
2022/11/25 01:43:21;;;;;;;9.00;2.10;;;8.30;99.90;;;;;;5092116;28;20179;-80
2022/11/25 01:45:47;;;;;;;11.27;2.27;;;8.30;99.90;;;;;;5076723;28;20290;-80
2022/11/25 01:48:28;;;;;;;8.97;1.60;;;8.30;99.90;;;;;;5075943;28;20179;-79
2022/11/25 01:50:54;;;;;;;6.53;2.00;;;8.40;99.90;;;;;;5076809;28;20163;-79
2022/11/25 01:53:21;;;;;;;8.20;2.20;;;8.40;99.90;;;;;;5076889;28;20224;-80
2022/11/25 01:55:57;;;;;;;7.33;1.80;;;8.40;99.90;;;;;;5092067;28;20194;-78
2022/11/25 01:58:32;;;;;;;9.40;1.80;;;8.40;99.90;;;;;;5076823;28;20159;-79
2022/11/25 02:00:57;;;;;;;12.37;2.23;;;8.50;99.90;;;;;;5075675;28;20163;-79
2022/11/25 02:03:29;;;;;;;7.53;2.00;;;8.50;99.90;;;;;;5076631;28;20261;-79
2022/11/25 02:06:06;;;;;;;7.10;2.17;;;8.50;99.90;;;;;;5076641;28;20206;-80
2022/11/25 02:08:32;;;;;;;3.73;1.73;;;8.50;99.90;;;;;;5076499;28;20166;-77
2022/11/25 02:11:00;;;;;;;10.63;2.77;;;8.60;99.90;;;;;;5076098;28;20190;-78
2022/11/25 02:13:27;;;;;;;7.47;1.60;;;8.60;99.90;;;;;;5074930;28;20635;-79
2022/11/25 02:15:53;;;;;;;10.73;2.37;;;8.60;99.90;;;;;;5076146;28;20668;-79
2022/11/25 02:18:18;;;;;;;8.10;2.40;;;8.60;99.90;;;;;;5076199;28;20179;-79
2022/11/25 02:20:44;;;;;;;8.63;1.87;;;8.60;99.90;;;;;;5076294;28;20170;-79
2022/11/25 02:23:24;;;;;;;8.10;1.77;;;8.60;99.90;;;;;;5076113;28;20229;-78
2022/11/25 02:25:50;;;;;;;9.10;1.93;;;8.60;99.90;;;;;;5075580;28;20292;-79
2022/11/25 02:28:21;;;;;;;11.57;2.30;;;8.60;99.90;;;;;;5075922;28;20258;-79
2022/11/25 02:30:48;;;;;;;7.40;1.97;;;8.70;99.90;;;;;;5074926;28;20170;-78
2022/11/25 02:33:15;;;;;;;10.10;2.00;;;8.70;99.90;;;;;;5075762;28;20182;-79
2022/11/25 02:35:50;;;;;;;7.47;2.00;;;8.70;99.90;;;;;;5073635;28;20214;-79
2022/11/25 02:38:40;;;;;;;10.90;2.13;;;8.70;99.90;;;;;;5075927;28;20182;-78
2022/11/25 02:41:10;;;;;;;8.63;2.23;;;8.70;99.90;;;;;;5075606;28;20178;-79
2022/11/25 02:43:35;;;;;;;11.80;3.03;;;8.70;99.90;;;;;;5075601;28;20244;-80
2022/11/25 02:46:04;;;;;;;10.23;2.07;;;8.70;99.90;;;;;;5075436;28;20669;-79
2022/11/25 02:48:32;;;;;;;12.97;2.10;;;8.80;99.90;;;;;;5076295;28;20178;-79
2022/11/25 02:50:58;;;;;;;6.20;1.60;;;8.80;99.90;;;;;;5075359;28;20175;-79
2022/11/25 02:53:24;;;;;;;11.23;2.03;;;8.80;99.90;;;;;;5074638;28;20167;-79
2022/11/25 02:55:49;;;;;;;7.93;1.57;;;8.80;99.90;;;;;;5075269;28;20745;-80
2022/11/25 02:58:16;;;;;;;6.80;1.77;;;8.80;99.90;;;;;;5075291;28;20171;-77
2022/11/25 03:00:42;;;;;;;8.87;1.67;;;8.80;99.90;;;;;;5073583;28;20264;-79
2022/11/25 03:03:08;;;;;;;10.10;2.10;;;8.80;99.90;;;;;;5075305;28;20174;-79
2022/11/25 03:05:34;;;;;;;10.40;1.87;;;8.80;99.90;;;;;;5073518;28;20201;-80
2022/11/25 03:07:59;;;;;;;4.53;1.83;;;8.80;99.90;;;;;;5075117;28;20203;-79
2022/11/25 03:10:25;;;;;;;8.03;2.03;;;8.80;99.90;;;;;;5074126;28;20173;-79
2022/11/25 03:12:51;;;;;;;9.23;1.93;;;8.80;99.90;;;;;;5074288;28;20167;-79
2022/11/25 03:15:17;;;;;;;11.33;1.90;;;8.80;99.90;;;;;;5075025;28;20191;-81
2022/11/25 03:17:43;;;;;;;12.00;2.27;;;8.80;99.90;;;;;;5073555;28;20235;-80
2022/11/25 03:20:09;;;;;;;10.43;2.50;;;8.80;99.90;;;;;;5074044;28;20178;-79
2022/11/25 03:22:35;;;;;;;7.60;2.60;;;8.90;99.90;;;;;;5075134;28;20177;-81
2022/11/25 03:25:00;;;;;;;8.97;2.03;;;8.90;99.90;;;;;;5074814;28;20218;-80
2022/11/25 03:27:26;;;;;;;11.83;2.00;;;8.80;99.90;;;;;;5073265;28;20305;-79
2022/11/25 03:29:52;;;;;;;8.70;2.43;;;8.90;99.90;;;;;;5075305;28;20609;-76
2022/11/25 03:32:17;;;;;;;9.07;2.10;;;8.90;99.90;;;;;;5073444;28;20182;-80
2022/11/25 03:34:43;;;;;;;6.50;2.40;;;8.90;99.90;;;;;;5075501;28;20183;-79
2022/11/25 03:37:08;;;;;;;11.70;2.33;;;8.90;99.90;;;;;;5075010;28;20175;-78
2022/11/25 03:39:34;;;;;;;7.67;2.20;;;8.90;99.90;;;;;;5074475;28;20542;-80
2022/11/25 03:41:59;;;;;;;7.03;2.03;;;8.90;99.90;;;;;;5075459;28;20664;-80
2022/11/25 03:44:25;;;;;;;13.10;2.50;;;8.90;99.90;;;;;;5075434;28;20533;-80
2022/11/25 03:46:50;;;;;;;6.23;2.30;;;8.90;99.90;;;;;;5072881;28;20235;-75
2022/11/25 03:49:16;;;;;;;12.27;2.37;;;9.00;99.90;;;;;;5074445;28;20191;-80
2022/11/25 03:51:42;;;;;;;12.23;2.60;;;9.00;99.90;;;;;;5074462;28;20166;-80
2022/11/25 03:54:07;;;;;;;9.40;2.33;;;9.00;99.90;;;;;;5090015;28;20209;-78
2022/11/25 03:56:33;;;;;;;16.37;2.53;;;9.00;99.90;;;;;;5074472;28;20171;-80
2022/11/25 03:58:58;;;;;;;11.90;2.20;;;9.00;99.90;;;;;;5074772;28;20181;-79
2022/11/25 04:01:24;;;;;;;8.10;2.10;;;9.00;99.90;;;;;;5090022;28;20185;-79
2022/11/25 04:03:49;;;;;;;14.50;2.47;;;9.00;99.90;;;;;;5089323;28;20742;-79
2022/11/25 04:06:17;;;;;;;10.13;2.10;;;9.00;99.90;;;;;;5074253;28;20230;-79
2022/11/25 04:08:43;;;;;;;13.77;2.60;;;9.00;99.90;;;;;;5074618;28;20648;-78
2022/11/25 04:11:08;;;;;;;6.43;2.30;;;9.00;99.90;;;;;;5074858;28;20179;-79
2022/11/25 04:13:34;;;;;;;13.80;2.30;;;9.00;99.90;;;;;;5074961;28;20167;-78
2022/11/25 04:15:59;;;;;;;10.00;2.10;;;9.00;99.90;;;;;;5074662;28;20515;-79
2022/11/25 04:18:25;;;;;;;10.27;2.53;;;9.00;99.90;;;;;;5074238;28;20610;-79
2022/11/25 04:20:51;;;;;;;14.37;2.63;;;8.90;99.90;;;;;;5074922;28;20254;-79
2022/11/25 04:23:16;;;;;;;11.43;2.70;;;8.90;99.90;;;;;;5075057;28;20224;-79
2022/11/25 04:25:42;;;;;;;11.90;2.57;;;8.90;99.90;;;;;;5074393;28;20210;-79
2022/11/25 04:28:08;;;;;;;8.70;2.33;;;8.80;99.90;;;;;;5074747;28;20210;-79
2022/11/25 04:30:33;;;;;;;8.83;2.90;;;8.90;99.90;;;;;;5075249;28;20312;-80
2022/11/25 04:33:00;;;;;;;11.70;2.50;;;8.90;99.90;;;;;;5075580;28;20175;-79
2022/11/25 04:35:26;;;;;;;7.03;2.10;;;8.80;99.90;;;;;;5072872;28;20195;-79
2022/11/25 04:37:51;;;;;;;8.30;2.33;;;8.80;99.90;;;;;;5073852;28;20716;-78
2022/11/25 04:40:17;;;;;;;9.20;2.30;;;8.80;99.90;;;;;;5075842;28;20181;-80
2022/11/25 04:42:42;;;;;;;15.33;2.43;;;8.80;99.90;;;;;;5086100;28;20208;-79
2022/11/25 04:45:11;;;;;;;9.13;2.57;;;8.80;99.90;;;;;;5085089;28;20571;-79
2022/11/25 04:47:38;;;;;;;8.63;2.37;;;8.80;99.90;;;;;;5075540;28;20202;-79
2022/11/25 04:50:05;;;;;;;9.60;2.37;;;8.70;99.90;;;;;;5074577;28;20257;-79
2022/11/25 04:52:30;;;;;;;8.03;2.30;;;8.70;99.90;;;;;;5073890;28;20190;-79
2022/11/25 04:54:56;;;;;;;14.20;3.33;;;8.70;99.90;;;;;;5073831;28;20641;-77
2022/11/25 04:57:22;;;;;;;9.40;2.50;;;8.70;99.90;;;;;;5073152;28;20177;-79
2022/11/25 04:59:47;;;;;;;9.63;2.93;;;8.70;99.90;;;;;;5078515;28;20171;-79
2022/11/25 05:02:14;;;;;;;11.83;2.67;;;8.70;99.90;;;;;;5065659;28;20194;-79
2022/11/25 05:04:41;;;;;;;8.60;2.67;;;8.70;99.90;;;;;;5079687;28;20765;-78
2022/11/25 05:07:07;;;;;;;10.50;2.63;;;8.70;99.90;;;;;;5067540;28;20203;-79
2022/11/25 05:09:33;;;;;;;7.40;2.27;;;8.70;99.90;;;;;;5063863;28;20175;-76
2022/11/25 05:11:58;;;;;;;8.60;1.90;;;8.70;99.90;;;;;;5064229;28;20233;-77
2022/11/25 05:14:24;;;;;;;9.53;2.37;;;8.60;99.90;;;;;;5075734;28;20290;-80
2022/11/25 05:16:50;;;;;;;11.47;2.77;;;8.70;99.90;;;;;;5075622;28;20171;-78
2022/11/25 05:19:16;;;;;;;12.60;3.03;;;8.70;99.90;;;;;;5075412;28;20186;-79
2022/11/25 05:21:41;;;;;;;8.10;2.73;;;8.70;99.90;;;;;;5076513;28;20190;-77
2022/11/25 05:24:07;;;;;;;7.33;2.17;;;8.70;99.90;;;;;;5074823;28;20203;-76
2022/11/25 05:26:32;;;;;;;11.80;2.50;;;8.60;99.90;;;;;;5076886;28;20618;-78
2022/11/25 05:28:58;;;;;;;14.73;2.83;;;8.70;99.90;;;;;;5074629;28;20171;-76
2022/11/25 05:31:23;;;;;;;9.43;2.40;;;8.70;99.90;;;;;;5075627;28;20167;-77
2022/11/25 05:33:49;;;;;;;12.40;2.70;;;8.70;99.90;;;;;;5074558;28;20178;-77
2022/11/25 05:36:14;;;;;;;11.23;2.93;;;8.70;99.90;;;;;;5074675;28;20530;-77
2022/11/25 05:38:40;;;;;;;7.03;2.40;;;8.60;99.90;;;;;;5073794;28;20668;-76
2022/11/25 05:41:06;;;;;;;12.70;3.20;;;8.70;99.90;;;;;;5074831;28;20178;-77
2022/11/25 05:43:33;;;;;;;10.30;2.73;;;8.60;99.90;;;;;;5074950;28;20175;-76
2022/11/25 05:46:02;;;;;;;10.97;3.37;;;8.60;99.90;;;;;;5074740;28;20644;-77
2022/11/25 05:48:28;;;;;;;7.93;2.87;;;8.60;99.90;;;;;;5075086;28;20570;-78
2022/11/25 05:50:53;;;;;;;9.30;2.40;;;8.60;99.90;;;;;;5074832;28;20185;-76
2022/11/25 05:53:19;;;;;;;11.10;3.00;;;8.60;99.90;;;;;;5073153;28;20198;-76
2022/11/25 05:55:54;;;;;;;12.10;3.10;;;8.60;99.90;;;;;;5074718;28;20198;-77
2022/11/25 05:58:20;;;;;;;9.10;2.67;;;8.60;99.90;;;;;;5073102;28;20186;-77
2022/11/25 06:00:46;;;;;;;12.43;3.50;;;8.60;99.90;;;;;;5074298;28;20229;-77
2022/11/25 06:03:11;;;;;;;17.20;3.10;;;8.60;99.90;;;;;;5074464;28;20690;-76
2022/11/25 06:05:37;;;;;;;11.63;3.60;;;8.60;99.90;;;;;;5074135;28;20190;-77
2022/11/25 06:08:02;;;;;;;17.20;3.67;;;8.60;99.90;;;;;;5074157;28;20201;-75
2022/11/25 06:10:28;;;;;;;13.53;3.77;;;8.60;99.90;;;;;;5073763;28;20278;-77
2022/11/25 06:12:53;;;;;;;10.07;3.10;;;8.60;99.90;;;;;;5074774;28;20690;-78
2022/11/25 06:15:19;;;;;;;8.80;3.40;;;8.60;99.90;;;;;;5072669;28;20195;-76
2022/11/25 06:17:44;;;;;;;11.87;3.30;;;8.60;99.90;;;;;;5075631;28;20201;-77
2022/11/25 06:20:10;;;;;;;9.33;2.73;;;8.60;99.90;;;;;;5074884;28;20197;-78
2022/11/25 06:22:36;;;;;;;10.63;3.27;;;8.50;99.90;;;;;;5075608;28;20175;-77
2022/11/25 06:25:01;;;;;;;10.23;3.53;;;8.50;99.90;;;;;;5073021;28;20218;-78
2022/11/25 06:27:27;;;;;;;11.50;2.70;;;8.50;99.90;;;;;;5098953;22;20242;-75
2022/11/25 06:29:52;;;;;;;7.33;2.50;;;8.50;99.90;;;;;;5074414;28;20640;-76
2022/11/25 06:32:18;;;;;;;9.87;3.70;;;8.50;99.90;;;;;;5074923;28;20181;-75
2022/11/25 06:34:43;;;;;;;10.60;3.10;;;8.50;99.90;;;;;;5056452;28;20171;-75
2022/11/25 06:37:09;;;;;;;10.27;2.80;;;8.50;99.90;;;;;;5074348;28;20589;-76
2022/11/25 06:39:34;;;;;;;14.13;3.87;;;8.50;99.90;;;;;;5073074;28;20167;-75
2022/11/25 06:42:00;;;;;;;8.83;3.00;;;8.50;99.90;;;;;;5074196;28;20171;-75
2022/11/25 06:44:26;;;;;;;10.17;3.40;;;8.50;99.90;;;;;;5074477;28;20176;-75
2022/11/25 06:46:51;;;;;;;13.53;3.40;;;8.50;99.90;;;;;;5074189;28;20680;-76
2022/11/25 06:49:17;;;;;;;10.20;3.03;;;8.50;99.90;;;;;;5072846;28;20189;-75
2022/11/25 06:51:42;;;;;;;7.83;3.00;;;8.50;99.90;;;;;;5074229;28;20237;-76
2022/11/25 06:54:09;;;;;;;13.03;3.60;;;8.50;99.90;;;;;;5072795;28;20677;-76
2022/11/25 06:56:35;;;;;;;10.30;2.87;;;8.50;99.90;;;;;;5072855;28;20195;-76
2022/11/25 06:59:01;;;;;;;10.27;3.63;;;8.50;99.90;;;;;;5074325;28;20171;-76
2022/11/25 07:01:28;;;;;;;13.00;3.50;;;8.40;99.90;;;;;;5074269;28;20178;-76
2022/11/25 07:04:00;;;;;;;10.60;3.60;;;8.50;99.90;;;;;;5074246;28;20177;-75
2022/11/25 07:06:26;;;;;;;12.07;3.50;;;8.50;99.90;;;;;;5072513;28;20198;-76
2022/11/25 07:08:52;;;;;;;11.13;3.47;;;8.50;99.90;;;;;;5072587;28;20182;-78
2022/11/25 07:11:32;;;;;;;8.90;3.03;;;8.50;99.90;;;;;;5075860;28;20175;-77
2022/11/25 07:14:01;;;;;;;13.13;3.70;;;8.50;99.90;;;;;;5073387;28;20155;-77
2022/11/25 07:16:27;;;;;;;17.77;3.83;;;8.50;99.90;;;;;;5074333;28;20256;-77
2022/11/25 07:18:52;;;;;;;16.73;3.93;;;8.50;99.90;;;;;;5074003;28;20661;-77
2022/11/25 07:21:20;;;;;;;10.90;2.83;;;8.50;99.90;;;;;;5074274;28;20182;-77
2022/11/25 07:23:47;;;;;;;9.47;3.00;;;8.50;99.90;;;;;;5074560;28;20533;-77
2022/11/25 07:26:16;;;;;;;14.17;3.83;;;8.50;99.90;;;;;;5073329;28;20245;-77
2022/11/25 07:28:43;;;;;;;13.90;3.63;;;8.50;99.90;;;;;;5073156;28;20182;-77
2022/11/25 07:31:18;;;;;;;10.97;3.37;;;8.40;99.90;;;;;;5074317;28;20171;-77
2022/11/25 07:33:44;;;;;;;12.37;3.67;;;8.40;99.90;;;;;;5073739;28;20220;-77
2022/11/25 07:36:12;;;;;;;8.87;2.77;;;8.40;99.90;;;;;;5073752;28;20680;-77
2022/11/25 07:38:38;;;;;;;15.20;3.30;;;8.30;99.90;;;;;;5074798;28;20174;-75
2022/11/25 07:41:15;;;;;;;12.97;2.80;;;8.30;99.90;;;;;;5075152;28;20182;-77
2022/11/25 07:43:46;;;;;;;10.87;2.57;;;8.30;99.90;;;;;;5072358;28;20166;-75
2022/11/25 07:46:20;;;;;;;10.10;3.67;;;8.30;99.90;;;;;;5072524;28;20202;-76
2022/11/25 07:48:46;;;;;;;11.53;3.33;;;8.30;99.90;;;;;;5071877;28;20169;-76
2022/11/25 07:51:15;;;;;;;8.97;3.27;;;8.30;99.90;;;;;;5073346;28;20192;-76
2022/11/25 07:53:40;;;;;;;7.90;3.80;;;8.30;99.90;;;;;;5073209;28;20167;-76
2022/11/25 07:56:06;;;;;;;15.27;3.60;;;8.20;99.90;;;;;;5073496;28;20255;-77
2022/11/25 07:58:32;;;;;;;15.37;4.00;;;8.20;99.90;;;;;;5071729;28;20668;-76
2022/11/25 08:01:01;;;;;;;8.20;3.60;;;8.20;99.90;;;;;;5074206;28;20253;-79
2022/11/25 08:03:27;;;;;;;8.43;3.17;;;8.30;99.90;;;;;;5078043;28;20278;-78
2022/11/25 08:05:53;;;;;;;10.00;3.33;;;8.30;99.90;;;;;;5082918;28;20186;-78
2022/11/25 08:08:18;;;;;;;18.57;3.57;;;8.30;99.90;;;;;;5077767;28;20175;-78
2022/11/25 08:10:44;;;;;;;8.90;2.90;;;8.30;99.90;;;;;;5073807;28;20552;-77
2022/11/25 08:13:09;;;;;;;7.80;3.10;;;8.30;99.90;;;;;;5077256;28;20178;-77
2022/11/25 08:15:35;;;;;;;11.77;3.17;;;8.40;99.90;;;;;;5078446;28;20224;-78
2022/11/25 08:18:00;;;;;;;8.67;2.87;;;8.40;99.90;;;;;;5079497;28;20190;-77
2022/11/25 08:20:26;;;;;;;10.30;3.00;;;8.40;99.90;;;;;;5083059;28;20178;-80
2022/11/25 08:22:53;;;;;;;11.50;3.60;;;8.40;99.90;;;;;;5074701;28;20171;-77
2022/11/25 08:25:18;;;;;;;10.80;3.57;;;8.40;99.90;;;;;;5076243;28;20227;-79
2022/11/25 08:27:44;;;;;;;10.80;3.50;;;8.40;99.90;;;;;;5077981;28;20214;-78
2022/11/25 08:30:10;;;;;;;10.30;4.00;;;8.40;99.90;;;;;;5076604;28;20278;-77
2022/11/25 08:32:38;;;;;;;11.03;3.60;;;8.40;99.90;;;;;;5077287;28;20263;-76
2022/11/25 08:35:05;;;;;;;8.30;3.20;;;8.40;99.90;;;;;;5077749;28;20218;-77
2022/11/25 08:37:31;;;;;;;8.00;3.30;;;8.40;99.90;;;;;;5081459;28;20276;-77
2022/11/25 08:39:56;;;;;;;17.53;3.53;;;8.40;99.90;;;;;;5081971;28;20762;-78
2022/11/25 08:42:22;;;;;;;14.47;3.73;;;8.40;99.90;;;;;;5079803;28;20546;-77
2022/11/25 08:44:52;;;;;;;9.03;3.03;;;8.40;99.90;;;;;;5080786;28;20209;-77
2022/11/25 08:47:18;;;;;;;7.27;3.33;;;8.50;99.90;;;;;;5078873;28;20218;-76
2022/11/25 08:49:44;;;;;;;13.17;4.33;;;8.50;99.90;;;;;;5078780;28;20187;-77
2022/11/25 08:52:09;;;;;;;8.73;3.50;;;8.50;99.90;;;;;;5081845;28;20166;-77
2022/11/25 08:54:35;;;;;;;12.17;3.93;;;8.50;99.90;;;;;;5076586;28;20567;-77
2022/11/25 08:57:01;;;;;;;14.17;3.37;;;8.50;99.90;;;;;;5076389;28;20735;-77
2022/11/25 08:59:27;;;;;;;11.07;3.90;;;8.40;99.90;;;;;;5077942;28;20254;-77
2022/11/25 09:01:52;;;;;;;13.33;3.57;;;8.50;99.90;;;;;;5078387;28;20266;-77
2022/11/25 09:04:18;;;;;;;18.17;4.30;;;8.50;99.90;;;;;;5079735;28;20182;-79
2022/11/25 09:06:43;;;;;;;12.97;3.23;;;8.60;99.90;;;;;;5083477;28;20210;-79
2022/11/25 09:09:09;;;;;;;11.57;3.43;;;8.60;99.90;;;;;;5083678;28;20710;-78
2022/11/25 09:11:34;;;;;;;14.43;3.73;;;8.70;99.90;;;;;;5089066;28;20187;-79
2022/11/25 09:14:00;;;;;;;9.20;4.47;;;8.70;99.90;;;;;;5087940;28;20189;-78
2022/11/25 09:16:25;;;;;;;11.73;3.67;;;8.70;99.90;;;;;;5089766;28;20191;-79
2022/11/25 09:18:51;;;;;;;11.07;3.57;;;8.80;99.90;;;;;;5087118;28;20182;-78
2022/11/25 09:21:17;;;;;;;9.63;3.53;;;8.90;99.90;;;;;;5088727;28;20186;-78
2022/11/25 09:23:42;;;;;;;10.23;3.70;;;9.00;99.90;;;;;;5089395;28;20202;-79
2022/11/25 09:26:19;;;;;;;9.20;3.70;;;9.00;99.90;;;;;;5093493;28;20214;-80
2022/11/25 09:28:45;;;;;;;8.13;3.40;;;9.10;99.90;;;;;;5093672;28;20167;-79
2022/11/25 09:31:10;;;;;;;13.53;3.90;;;9.20;99.90;;;;;;5092883;28;20189;-78
2022/11/25 09:33:36;;;;;;;7.73;2.97;;;9.20;99.90;;;;;;5089811;28;20182;-78
2022/11/25 09:36:02;;;;;;;10.93;3.80;;;9.30;99.90;;;;;;5087984;28;20182;-79
2022/11/25 09:38:28;;;;;;;9.83;3.77;;;9.30;99.90;;;;;;5080042;28;20167;-77
2022/11/25 09:48:04;;;;;;;7.43;3.10;;;9.40;99.90;;;;;;5085903;28;20560;-79
2022/11/25 09:50:52;;;;;;;8.77;3.43;;;9.40;99.90;;;;;;5080357;28;20251;-79
2022/11/25 09:53:48;;;;;;;7.90;2.97;;;9.40;99.90;;;;;;5083510;28;20175;-79
2022/11/25 09:56:28;;;;;;;7.47;3.10;;;9.50;99.90;;;;;;5085844;28;20199;-79
2022/11/25 09:59:13;;;;;;;10.87;3.50;;;9.60;99.90;;;;;;5085104;28;20151;-79
2022/11/25 10:01:51;;;;;;;13.50;2.97;;;9.60;99.90;;;;;;5082756;28;20221;-78
2022/11/25 10:04:24;;;;;;;13.13;3.40;;;9.60;99.90;;;;;;5080840;28;20171;-81
2022/11/25 10:06:55;;;;;;;10.77;3.77;;;9.70;99.90;;;;;;5082191;28;20715;-78
2022/11/25 10:09:27;;;;;;;17.27;4.30;;;9.70;99.90;;;;;;5080219;28;20530;-79
2022/11/25 10:11:57;;;;;;;7.87;3.17;;;9.70;99.90;;;;;;5080286;28;20164;-79
2022/11/25 10:14:41;;;;;;;12.43;3.13;;;9.80;99.90;;;;;;5080672;28;20171;-78
2022/11/25 10:17:13;;;;;;;10.90;3.03;;;9.80;99.90;;;;;;5080654;28;20223;-79
2022/11/25 10:19:49;;;;;;;8.63;2.90;;;9.80;99.90;;;;;;5082724;28;20224;-79
2022/11/25 10:22:21;;;;;;;9.00;2.90;;;9.80;99.90;;;;;;5081284;28;20171;-79
2022/11/25 10:24:48;;;;;;;11.80;2.80;;;9.80;99.90;;;;;;5081690;28;20175;-79
2022/11/25 10:27:40;;;;;;;4.37;1.73;;;9.80;99.90;;;;;;5081304;28;20229;-79
2022/11/25 10:30:52;;;;;;;10.33;2.33;;;9.80;99.90;;;;;;5079277;28;20163;-79
2022/11/25 10:33:26;;;;;;;9.23;2.63;;;9.90;99.90;;;;;;5072478;28;20179;-80
2022/11/25 10:36:05;;;;;;;12.93;3.60;;;9.90;99.90;;;;;;5079955;28;20159;-81
2022/11/25 10:38:41;;;;;;;14.73;2.67;;;10.10;99.90;;;;;;5085021;28;20536;-82
2022/11/25 10:41:13;;;;;;;6.17;1.73;;;10.00;99.90;;;;;;5081135;28;20185;-78
2022/11/25 10:43:41;;;;;;;10.43;2.53;;;10.10;99.90;;;;;;5082355;28;20235;-80
2022/11/25 10:46:39;;;;;;;16.37;2.53;;;10.10;99.90;;;;;;5085251;28;20201;-81
2022/11/25 10:49:04;;;;;;;5.40;2.40;;;10.10;99.90;;;;;;5082380;28;20704;-78
2022/11/25 10:51:47;;;;;;;11.57;2.63;;;10.20;99.90;;;;;;5081322;28;20202;-78
2022/11/25 10:54:15;;;;;;;11.77;3.03;;;10.20;99.90;;;;;;5079288;28;20178;-78
2022/11/25 10:56:48;;;;;;;13.27;2.47;;;10.30;99.90;;;;;;5075129;28;20191;-79
2022/11/25 10:59:23;;;;;;;11.83;2.70;;;10.30;99.90;;;;;;5076860;28;20197;-78
2022/11/25 11:01:51;;;;;;;7.57;2.30;;;10.30;99.90;;;;;;5077809;28;20249;-78
2022/11/25 11:04:18;;;;;;;14.17;2.67;;;10.40;99.90;;;;;;5077538;28;20656;-79
2022/11/25 11:06:46;;;;;;;7.37;2.30;;;10.40;99.90;;;;;;5073818;28;20199;-79
2022/11/25 11:09:35;;;;;;;7.43;2.20;;;10.50;99.90;;;;;;5075024;28;20292;-81
2022/11/25 11:12:26;;;;;;;7.83;2.43;;;10.60;99.90;;;;;;5075631;28;20160;-76
2022/11/25 11:15:12;;;;;;;8.23;2.13;;;10.60;99.90;;;;;;5073669;28;20202;-75
2022/11/25 11:17:38;;;;;;;6.03;2.40;;;10.70;99.90;;;;;;5073803;28;20190;-75
2022/11/25 11:20:06;;;;;;;8.47;2.37;;;10.60;99.90;;;;;;5072343;28;20185;-75
2022/11/25 11:22:33;;;;;;;8.57;2.10;;;10.70;99.90;;;;;;5073766;28;20198;-76
2022/11/25 11:25:24;;;;;;;6.13;1.73;;;10.60;99.90;;;;;;5073563;28;20563;-77
2022/11/25 11:27:50;;;;;;;8.00;2.13;;;10.60;99.90;;;;;;5074462;28;20580;-79
2022/11/25 11:30:19;;;;;;;8.10;1.80;;;10.60;99.90;;;;;;5074585;28;20162;-78
2022/11/25 11:33:00;;;;;;;7.00;2.27;;;10.60;99.90;;;;;;5074711;28;20350;-78
2022/11/25 11:35:40;;;;;;;11.50;2.60;;;10.70;99.90;;;;;;5073537;28;20200;-79
2022/11/25 11:38:25;;;;;;;8.33;2.17;;;10.70;99.90;;;;;;5073829;28;20193;-77
2022/11/25 11:41:15;;;;;;;13.23;2.80;;;10.80;99.90;;;;;;5073948;28;20151;-76
2022/11/25 11:44:17;;;;;;;11.67;2.37;;;10.90;99.90;;;;;;5072637;28;20167;-77
2022/11/25 11:47:19;;;;;;;7.40;2.63;;;10.90;99.90;;;;;;5072391;28;20210;-79
2022/11/25 11:49:54;;;;;;;10.00;2.17;;;11.00;99.90;;;;;;5083035;28;20213;-80
2022/11/25 11:52:38;;;;;;;11.57;2.50;;;11.00;99.90;;;;;;5081500;28;20613;-80
2022/11/25 11:55:19;;;;;;;9.93;2.50;;;11.10;99.90;;;;;;5081926;28;20205;-80
2022/11/25 11:58:12;;;;;;;7.73;2.10;;;11.20;99.90;;;;;;5081000;28;20191;-80
2022/11/25 12:01:04;;;;;;;11.10;2.20;;;11.20;99.90;;;;;;5077670;28;20262;-79
2022/11/25 12:03:37;;;;;;;7.27;2.30;;;11.20;99.90;;;;;;5076622;28;20201;-80
2022/11/25 12:06:05;;;;;;;10.50;2.43;;;11.30;99.90;;;;;;5076444;28;20268;-81
2022/11/25 12:08:49;;;;;;;10.53;2.67;;;11.30;99.90;;;;;;5078510;28;20167;-80
2022/11/25 12:11:23;;;;;;;11.47;2.40;;;11.40;99.90;;;;;;5076206;28;20183;-79
2022/11/25 12:14:04;;;;;;;10.27;2.47;;;11.40;99.90;;;;;;5074643;28;20166;-78
2022/11/25 12:17:00;;;;;;;7.47;2.57;;;11.60;99.90;;;;;;5075844;28;20187;-78
2022/11/25 12:19:46;;;;;;;10.30;3.00;;;11.60;99.90;;;;;;5073444;28;20181;-78
2022/11/25 12:22:18;;;;;;;8.37;2.30;;;11.70;99.90;;;;;;5074808;28;20170;-78
2022/11/25 12:25:05;;;;;;;7.10;2.27;;;11.70;99.90;;;;;;5073292;28;20179;-79
2022/11/25 12:28:01;;;;;;;3.80;1.80;;;11.80;99.90;;;;;;5107435;22;20242;-96
2022/11/25 12:30:57;;;;;;;7.47;1.60;;;11.70;99.90;;;;;;5098081;28;20152;-95
2022/11/25 12:34:06;;;;;;;9.03;2.27;;;11.80;99.90;;;;;;5099652;28;20189;-96
2022/11/25 12:36:51;;;;;;;4.97;1.60;;;11.50;99.90;;;;;;5099203;28;20135;-95
2022/11/25 12:39:37;;;;;;;6.67;1.83;;;11.80;99.90;;;;;;5099080;28;20199;-96
2022/11/25 12:42:31;;;;;;;12.53;2.73;;;11.70;99.90;;;;;;5097476;28;20151;-96
2022/11/25 12:45:20;;;;;;;6.60;1.83;;;11.70;99.90;;;;;;5095580;28;20303;-95
2022/11/25 12:47:46;;;;;;;7.23;1.80;;;11.70;99.90;;;;;;5099059;28;20170;-96
2022/11/25 12:52:59;;;;;;;12.60;2.23;;;11.80;99.90;;;;;;5097029;22;20719;-77
2022/11/25 12:55:27;;;;;;;8.57;2.27;;;11.80;99.90;;;;;;5073577;28;20266;-80
2022/11/25 12:58:12;;;;;;;7.17;1.70;;;11.90;99.90;;;;;;5075320;28;20252;-79
2022/11/25 13:01:05;;;;;;;4.13;1.70;;;11.90;99.90;;;;;;5075028;28;20260;-78
2022/11/25 13:03:59;;;;;;;5.83;1.73;;;11.90;99.90;;;;;;5076455;28;20171;-78
2022/11/25 13:06:37;;;;;;;5.03;1.70;;;12.00;99.90;;;;;;5074467;28;20685;-80
2022/11/25 13:09:39;;;;;;;7.43;2.10;;;12.00;99.90;;;;;;5073087;28;20182;-79
2022/11/25 13:12:19;;;;;;;10.30;1.97;;;12.00;99.90;;;;;;5073335;28;20265;-79
2022/11/25 13:15:03;;;;;;;5.77;1.30;;;12.10;99.90;;;;;;5074819;28;20621;-78
2022/11/25 13:17:32;;;;;;;7.17;1.53;;;12.10;99.90;;;;;;5073918;28;20741;-78
2022/11/25 13:20:22;;;;;;;6.33;1.83;;;12.10;99.90;;;;;;5076956;28;20185;-78
2022/11/25 13:23:12;;;;;;;8.33;1.87;;;12.10;99.90;;;;;;5077228;28;20178;-78